createdAt,value
2019-02-24T00:02:15.711Z,3.10
2019-02-24T00:04:49.948Z,3.10
2019-02-24T00:07:25.599Z,3.10
2019-02-24T00:10:17.506Z,3.10
2019-02-24T00:12:51.327Z,3.10
2019-02-24T00:15:29.797Z,3.10
2019-02-24T00:18:02.810Z,3.10
2019-02-24T00:20:40.684Z,3.10
2019-02-24T00:23:15.935Z,3.10
2019-02-24T00:25:51.583Z,3.10
2019-02-24T00:28:26.016Z,3.10
2019-02-24T00:30:59.843Z,3.00
2019-02-24T00:33:34.622Z,3.00
2019-02-24T00:36:07.398Z,3.00
2019-02-24T00:38:42.179Z,3.00
2019-02-24T00:41:19.735Z,3.10
2019-02-24T00:43:52.531Z,3.10
2019-02-24T00:46:25.742Z,3.00
2019-02-24T00:48:58.495Z,3.10
2019-02-24T00:51:34.214Z,3.10
2019-02-24T00:54:09.895Z,3.10
2019-02-24T00:56:47.446Z,3.10
2019-02-24T00:59:21.057Z,3.10
2019-02-24T01:01:53.123Z,3.10
2019-02-24T01:04:24.495Z,3.10
2019-02-24T01:07:00.475Z,3.10
2019-02-24T01:09:34.534Z,3.10
2019-02-24T01:12:09.319Z,3.10
2019-02-24T01:14:43.563Z,3.10
2019-02-24T01:17:18.303Z,3.10
2019-02-24T01:19:52.973Z,3.10
2019-02-24T01:22:27.198Z,3.10
2019-02-24T01:25:01.599Z,3.10
2019-02-24T01:27:36.329Z,3.10
2019-02-24T01:30:09.822Z,3.00
2019-02-24T01:32:44.740Z,3.10
2019-02-24T01:35:18.689Z,3.10
2019-02-24T01:37:54.494Z,3.10
2019-02-24T01:40:29.218Z,3.10
2019-02-24T01:43:03.016Z,3.00
2019-02-24T01:45:36.675Z,3.00
2019-02-24T01:48:08.864Z,3.00
2019-02-24T01:50:44.011Z,3.00
2019-02-24T01:53:16.735Z,3.00
2019-02-24T01:55:50.527Z,3.00
2019-02-24T01:58:34.645Z,3.00
2019-02-24T02:01:03.456Z,3.00
2019-02-24T02:03:38.111Z,3.00
2019-02-24T02:06:14.878Z,3.00
2019-02-24T02:08:45.786Z,3.00
2019-02-24T02:11:19.903Z,3.00
2019-02-24T02:13:49.658Z,3.00
2019-02-24T02:16:22.851Z,3.00
2019-02-24T02:18:59.583Z,3.00
2019-02-24T02:21:33.434Z,3.00
2019-02-24T02:24:08.128Z,3.00
2019-02-24T02:26:42.143Z,3.00
2019-02-24T02:29:15.910Z,3.10
2019-02-24T02:31:49.888Z,3.10
2019-02-24T02:34:24.686Z,3.00
2019-02-24T02:36:56.959Z,3.00
2019-02-24T02:39:29.258Z,3.00
2019-02-24T02:42:04.192Z,3.00
2019-02-24T02:44:38.335Z,3.00
2019-02-24T02:47:12.032Z,3.00
2019-02-24T02:49:45.690Z,3.10
2019-02-24T02:52:21.407Z,3.10
2019-02-24T02:54:56.107Z,3.10
2019-02-24T02:57:30.282Z,3.10
2019-02-24T03:00:05.106Z,3.00
2019-02-24T03:02:40.681Z,3.00
2019-02-24T03:05:12.953Z,3.00
2019-02-24T03:07:55.695Z,3.00
2019-02-24T03:10:26.855Z,3.10
2019-02-24T03:12:58.822Z,3.10
2019-02-24T03:15:32.614Z,3.10
2019-02-24T03:18:02.968Z,3.10
2019-02-24T03:20:33.604Z,3.10
2019-02-24T03:23:07.460Z,3.10
2019-02-24T03:25:42.854Z,3.10
2019-02-24T03:28:14.747Z,3.20
2019-02-24T03:30:50.431Z,3.20
2019-02-24T03:33:23.393Z,3.20
2019-02-24T03:35:58.794Z,3.20
2019-02-24T03:38:32.653Z,3.20
2019-02-24T03:41:05.536Z,3.20
2019-02-24T03:43:41.183Z,3.20
2019-02-24T03:46:18.784Z,3.20
2019-02-24T03:48:53.844Z,3.20
2019-02-24T03:51:30.434Z,3.20
2019-02-24T03:54:01.259Z,3.20
2019-02-24T03:56:37.738Z,3.20
2019-02-24T03:59:15.297Z,3.20
2019-02-24T04:01:48.353Z,3.20
2019-02-24T04:04:22.623Z,3.30
2019-02-24T04:07:01.850Z,3.40
2019-02-24T04:09:33.174Z,3.30
2019-02-24T04:12:03.615Z,3.30
2019-02-24T04:14:35.969Z,3.30
2019-02-24T04:17:12.035Z,3.30
2019-02-24T04:19:43.743Z,3.40
2019-02-24T04:22:15.902Z,3.30
2019-02-24T04:24:48.575Z,3.30
2019-02-24T04:27:27.995Z,3.40
2019-02-24T04:30:02.694Z,3.40
2019-02-24T04:32:36.092Z,3.40
2019-02-24T04:35:10.048Z,3.40
2019-02-24T04:37:44.753Z,3.40
2019-02-24T04:40:18.496Z,3.40
2019-02-24T04:42:56.531Z,3.40
2019-02-24T04:45:29.726Z,3.40
2019-02-24T04:48:06.018Z,3.40
2019-02-24T04:50:40.096Z,3.40
2019-02-24T04:53:14.756Z,3.40
2019-02-24T04:55:47.547Z,3.40
2019-02-24T04:58:21.314Z,3.50
2019-02-24T05:00:56.166Z,3.50
2019-02-24T05:03:32.518Z,3.50
2019-02-24T05:06:02.559Z,3.50
2019-02-24T05:08:35.751Z,3.50
2019-02-24T05:11:11.944Z,3.50
2019-02-24T05:13:46.238Z,3.50
2019-02-24T05:16:19.508Z,3.50
2019-02-24T05:18:56.378Z,3.50
2019-02-24T05:21:31.021Z,3.50
2019-02-24T05:24:04.767Z,3.60
2019-02-24T05:26:38.369Z,3.60
2019-02-24T05:29:14.046Z,3.60
2019-02-24T05:31:47.175Z,3.50
2019-02-24T05:34:22.014Z,3.50
2019-02-24T05:36:55.816Z,3.50
2019-02-24T05:39:29.309Z,3.50
2019-02-24T05:42:05.014Z,3.60
2019-02-24T05:44:38.174Z,3.60
2019-02-24T05:47:08.515Z,3.50
2019-02-24T05:49:40.361Z,3.50
2019-02-24T05:52:17.421Z,3.50
2019-02-24T05:54:47.600Z,3.60
2019-02-24T05:57:22.594Z,3.60
2019-02-24T05:59:55.979Z,3.60
2019-02-24T06:02:29.215Z,3.60
2019-02-24T06:05:04.035Z,3.60
2019-02-24T06:07:39.074Z,3.60
2019-02-24T06:10:13.927Z,3.60
2019-02-24T06:12:46.629Z,3.70
2019-02-24T06:15:18.982Z,3.70
2019-02-24T06:17:53.947Z,3.80
2019-02-24T06:20:27.780Z,3.70
2019-02-24T06:23:01.519Z,3.70
2019-02-24T06:25:34.572Z,3.70
2019-02-24T06:28:10.303Z,3.80
2019-02-24T06:30:44.943Z,3.70
2019-02-24T06:33:22.305Z,3.70
2019-02-24T06:35:52.412Z,3.80
2019-02-24T06:38:22.154Z,3.80
2019-02-24T06:40:56.939Z,3.80
2019-02-24T06:43:30.166Z,3.80
2019-02-24T06:46:04.820Z,3.80
2019-02-24T06:48:38.795Z,3.80
2019-02-24T06:51:12.805Z,3.90
2019-02-24T06:53:44.323Z,3.90
2019-02-24T06:56:16.419Z,3.90
2019-02-24T06:58:50.990Z,3.90
2019-02-24T07:01:27.615Z,3.90
2019-02-24T07:04:00.303Z,4.00
2019-02-24T07:06:34.708Z,4.00
2019-02-24T07:09:09.929Z,4.10
2019-02-24T07:11:44.821Z,4.10
2019-02-24T07:14:19.299Z,4.20
2019-02-24T07:16:52.035Z,4.20
2019-02-24T07:19:25.602Z,4.20
2019-02-24T07:21:58.078Z,4.20
2019-02-24T07:24:30.763Z,4.20
2019-02-24T07:27:04.965Z,4.30
2019-02-24T07:29:40.382Z,4.30
2019-02-24T07:32:14.079Z,4.40
2019-02-24T07:34:46.145Z,4.40
2019-02-24T07:37:16.622Z,4.40
2019-02-24T07:39:47.083Z,4.40
2019-02-24T07:42:19.814Z,4.50
2019-02-24T07:44:53.347Z,4.50
2019-02-24T07:47:24.407Z,4.60
2019-02-24T07:49:58.210Z,4.60
2019-02-24T07:52:30.110Z,4.70
2019-02-24T07:55:00.346Z,4.70
2019-02-24T07:57:33.626Z,4.70
2019-02-24T08:00:05.450Z,4.70
2019-02-24T08:02:39.437Z,4.80
2019-02-24T08:05:10.889Z,4.80
2019-02-24T08:07:44.099Z,4.80
2019-02-24T08:10:19.679Z,4.90
2019-02-24T08:12:53.547Z,4.90
2019-02-24T08:15:29.663Z,4.90
2019-02-24T08:18:03.873Z,5.00
2019-02-24T08:20:36.607Z,5.00
2019-02-24T08:23:08.774Z,5.00
2019-02-24T08:25:45.311Z,5.00
2019-02-24T08:28:18.211Z,5.00
2019-02-24T08:33:21.664Z,5.00
2019-02-24T08:35:56.227Z,5.00
2019-02-24T08:38:31.999Z,5.10
2019-02-24T08:41:05.786Z,5.10
2019-02-24T08:43:38.986Z,5.10
2019-02-24T08:46:12.870Z,5.30
2019-02-24T08:48:45.207Z,5.30
2019-02-24T08:51:20.452Z,5.20
2019-02-24T08:53:54.054Z,5.20
2019-02-24T08:56:29.026Z,5.20
2019-02-24T08:59:03.170Z,5.20
2019-02-24T09:01:35.274Z,5.20
2019-02-24T09:04:08.516Z,5.20
2019-02-24T09:06:43.146Z,5.20
2019-02-24T09:09:13.318Z,5.40
2019-02-24T09:11:43.936Z,5.30
2019-02-24T09:14:16.839Z,5.40
2019-02-24T09:16:50.637Z,5.40
2019-02-24T09:19:25.250Z,5.40
2019-02-24T09:21:59.845Z,5.40
2019-02-24T09:24:32.671Z,5.40
2019-02-24T09:27:06.818Z,5.30
2019-02-24T09:29:42.128Z,5.30
2019-02-24T09:32:15.618Z,5.40
2019-02-24T09:34:49.217Z,5.40
2019-02-24T09:37:23.807Z,5.40
2019-02-24T09:39:58.555Z,5.40
2019-02-24T09:42:33.766Z,5.30
2019-02-24T09:45:09.710Z,5.30
2019-02-24T09:47:46.765Z,5.20
2019-02-24T09:50:18.911Z,5.30
2019-02-24T09:52:53.755Z,5.30
2019-02-24T09:55:29.342Z,5.30
2019-02-24T09:58:02.518Z,5.40
2019-02-24T10:00:33.555Z,5.40
2019-02-24T10:03:05.082Z,5.40
2019-02-24T10:05:39.110Z,5.40
2019-02-24T10:08:13.246Z,5.40
2019-02-24T10:10:46.884Z,5.50
2019-02-24T10:13:23.460Z,5.50
2019-02-24T10:15:57.151Z,5.60
2019-02-24T10:18:30.335Z,5.60
2019-02-24T10:21:04.357Z,5.60
2019-02-24T10:23:35.944Z,5.60
2019-02-24T10:26:06.869Z,5.70
2019-02-24T10:28:38.756Z,5.70
2019-02-24T10:31:19.663Z,5.70
2019-02-24T10:33:46.975Z,5.80
2019-02-24T10:36:22.910Z,5.90
2019-02-24T10:39:00.451Z,5.90
2019-02-24T10:41:32.908Z,5.90
2019-02-24T10:44:07.775Z,6.00
2019-02-24T10:46:43.399Z,6.00
2019-02-24T10:49:16.250Z,6.10
2019-02-24T10:51:49.407Z,6.10
2019-02-24T10:54:23.231Z,6.10
2019-02-24T10:56:55.611Z,6.10
2019-02-24T10:59:27.872Z,6.00
2019-02-24T11:02:03.391Z,6.10
2019-02-24T11:04:37.990Z,6.10
2019-02-24T11:07:11.135Z,6.10
2019-02-24T11:09:43.070Z,6.00
2019-02-24T11:12:13.569Z,6.10
2019-02-24T11:14:45.295Z,6.00
2019-02-24T11:17:20.001Z,6.00
2019-02-24T11:19:53.863Z,5.90
2019-02-24T11:22:28.486Z,5.80
2019-02-24T11:25:01.989Z,5.90
2019-02-24T11:27:33.239Z,5.90
2019-02-24T11:30:04.040Z,5.90
2019-02-24T11:32:36.674Z,5.90
2019-02-24T11:35:12.870Z,5.90
2019-02-24T11:37:47.686Z,6.00
2019-02-24T11:40:22.374Z,6.00
2019-02-24T11:42:53.826Z,6.00
2019-02-24T11:45:23.166Z,6.10
2019-02-24T11:47:57.694Z,6.10
2019-02-24T11:50:33.251Z,6.10
2019-02-24T11:53:05.055Z,6.20
2019-02-24T11:55:39.830Z,6.20
2019-02-24T11:58:16.289Z,6.30
2019-02-24T12:00:49.547Z,6.40
2019-02-24T12:03:24.223Z,6.40
2019-02-24T12:05:55.808Z,6.50
2019-02-24T12:08:30.470Z,6.50
2019-02-24T12:11:09.010Z,6.50
2019-02-24T12:13:43.231Z,6.60
2019-02-24T12:16:16.135Z,6.60
2019-02-24T12:18:46.823Z,6.60
2019-02-24T12:21:17.458Z,6.70
2019-02-24T12:23:51.199Z,6.70
2019-02-24T12:26:25.791Z,6.80
2019-02-24T12:29:00.063Z,6.80
2019-02-24T12:31:31.983Z,6.80
2019-02-24T12:34:05.354Z,6.90
2019-02-24T12:36:38.919Z,6.90
2019-02-24T12:39:12.746Z,7.00
2019-02-24T12:41:47.550Z,7.00
2019-02-24T12:44:20.075Z,7.00
2019-02-24T12:46:50.111Z,7.00
2019-02-24T12:49:22.388Z,7.00
2019-02-24T12:51:56.263Z,7.00
2019-02-24T12:54:31.562Z,7.00
2019-02-24T12:57:05.953Z,7.10
2019-02-24T12:59:40.686Z,7.10
2019-02-24T13:02:16.431Z,7.10
2019-02-24T13:04:50.441Z,7.20
2019-02-24T13:07:24.767Z,7.20
2019-02-24T13:09:55.208Z,7.30
2019-02-24T13:12:28.833Z,7.30
2019-02-24T13:15:03.402Z,7.40
2019-02-24T13:17:36.419Z,7.40
2019-02-24T13:20:09.993Z,7.40
2019-02-24T13:22:42.806Z,7.40
2019-02-24T13:25:15.755Z,7.50
2019-02-24T13:27:52.160Z,7.50
2019-02-24T13:30:26.750Z,7.60
2019-02-24T13:33:00.670Z,7.60
2019-02-24T13:35:33.475Z,7.70
2019-02-24T13:38:06.878Z,7.70
2019-02-24T13:40:40.090Z,7.80
2019-02-24T13:43:12.287Z,7.70
2019-02-24T13:45:47.232Z,7.70
2019-02-24T13:48:23.170Z,7.60
2019-02-24T13:50:55.842Z,7.60
2019-02-24T13:53:29.918Z,7.60
2019-02-24T13:56:02.421Z,7.60
2019-02-24T13:58:35.594Z,7.50
2019-02-24T14:01:09.375Z,7.50
2019-02-24T14:03:42.787Z,7.60
2019-02-24T14:06:15.095Z,7.50
2019-02-24T14:08:49.700Z,7.60
2019-02-24T14:11:20.211Z,7.60
2019-02-24T14:13:52.147Z,7.60
2019-02-24T14:16:24.422Z,7.60
2019-02-24T14:18:56.051Z,7.60
2019-02-24T14:21:27.726Z,7.50
2019-02-24T14:24:02.335Z,7.50
2019-02-24T14:26:36.870Z,7.40
2019-02-24T14:29:13.630Z,7.40
2019-02-24T14:31:48.270Z,7.40
2019-02-24T14:34:20.449Z,7.40
2019-02-24T14:36:53.603Z,7.50
2019-02-24T14:39:25.837Z,7.60
2019-02-24T14:41:59.999Z,7.60
2019-02-24T14:44:33.718Z,7.60
2019-02-24T14:47:05.758Z,7.60
2019-02-24T14:49:38.783Z,7.60
2019-02-24T14:52:12.479Z,7.60
2019-02-24T14:54:45.318Z,7.60
2019-02-24T14:57:20.127Z,7.50
2019-02-24T14:59:55.431Z,7.50
2019-02-24T15:02:29.375Z,7.40
2019-02-24T15:05:02.378Z,7.40
2019-02-24T15:07:36.194Z,7.30
2019-02-24T15:10:09.406Z,7.30
2019-02-24T15:12:44.363Z,7.20
2019-02-24T15:15:22.303Z,7.20
2019-02-24T15:17:56.712Z,7.10
2019-02-24T15:20:29.732Z,7.00
2019-02-24T15:23:02.843Z,7.00
2019-02-24T15:25:35.779Z,6.90
2019-02-24T15:28:06.470Z,7.00
2019-02-24T15:30:37.539Z,6.90
2019-02-24T15:33:08.025Z,6.80
2019-02-24T15:35:41.856Z,6.80
2019-02-24T15:38:14.591Z,6.70
2019-02-24T15:40:50.623Z,6.60
2019-02-24T15:43:26.271Z,6.60
2019-02-24T15:46:00.964Z,6.50
2019-02-24T15:48:36.863Z,6.40
2019-02-24T15:51:09.066Z,6.40
2019-02-24T15:53:42.307Z,6.30
2019-02-24T15:56:17.055Z,6.30
2019-02-24T15:58:51.046Z,6.20
2019-02-24T16:01:24.262Z,6.20
2019-02-24T16:03:57.058Z,6.10
2019-02-24T16:06:37.043Z,6.10
2019-02-24T16:09:07.262Z,6.00
2019-02-24T16:11:41.189Z,6.00
2019-02-24T16:14:12.913Z,5.90
2019-02-24T16:16:46.655Z,5.90
2019-02-24T16:19:23.755Z,6.00
2019-02-24T16:21:57.187Z,5.90
2019-02-24T16:24:30.170Z,5.80
2019-02-24T16:27:05.055Z,5.80
2019-02-24T16:29:38.366Z,5.80
2019-02-24T16:32:13.119Z,5.80
2019-02-24T16:34:46.703Z,5.80
2019-02-24T16:37:19.367Z,5.70
2019-02-24T16:39:52.064Z,5.70
2019-02-24T16:42:30.023Z,5.60
2019-02-24T16:45:00.297Z,5.50
2019-02-24T16:47:33.280Z,5.40
2019-02-24T16:50:06.111Z,5.40
2019-02-24T16:52:41.598Z,5.40
2019-02-24T16:55:15.843Z,5.40
2019-02-24T16:57:48.003Z,5.40
2019-02-24T17:00:22.082Z,5.40
2019-02-24T17:02:56.163Z,5.40
2019-02-24T17:05:31.102Z,5.40
2019-02-24T17:08:06.952Z,5.50
2019-02-24T17:10:39.107Z,5.40
2019-02-24T17:13:12.731Z,5.40
2019-02-24T17:15:44.935Z,5.30
2019-02-24T17:18:19.693Z,5.30
2019-02-24T17:20:50.398Z,5.20
2019-02-24T17:23:20.579Z,5.20
2019-02-24T17:25:55.107Z,5.20
2019-02-24T17:28:27.305Z,5.10
2019-02-24T17:31:00.479Z,5.10
2019-02-24T17:33:33.860Z,5.00
2019-02-24T17:36:08.703Z,5.00
2019-02-24T17:38:42.370Z,5.00
2019-02-24T17:41:13.163Z,4.90
2019-02-24T17:43:46.398Z,4.90
2019-02-24T17:46:22.175Z,4.90
2019-02-24T17:48:57.445Z,4.90
2019-02-24T17:51:32.393Z,4.90
2019-02-24T17:54:07.427Z,4.90
2019-02-24T17:56:37.779Z,4.90
2019-02-24T17:59:11.141Z,5.00
2019-02-24T18:01:45.057Z,5.00
2019-02-24T18:04:19.582Z,5.00
2019-02-24T18:06:53.410Z,5.00
2019-02-24T18:09:27.198Z,5.00
2019-02-24T18:12:00.264Z,5.00
2019-02-24T18:14:30.562Z,5.00
2019-02-24T18:17:03.018Z,5.00
2019-02-24T18:19:35.313Z,5.00
2019-02-24T18:22:05.735Z,4.90
2019-02-24T18:24:38.039Z,4.90
2019-02-24T18:27:14.399Z,4.80
2019-02-24T18:29:45.364Z,4.70
2019-02-24T18:32:19.058Z,4.70
2019-02-24T18:34:52.928Z,4.60
2019-02-24T18:37:27.847Z,4.60
2019-02-24T18:39:59.890Z,4.60
2019-02-24T18:42:30.139Z,4.50
2019-02-24T18:45:01.224Z,4.50
2019-02-24T18:47:38.752Z,4.50
2019-02-24T18:50:15.563Z,4.50
2019-02-24T18:52:49.345Z,4.60
2019-02-24T18:55:21.362Z,4.50
2019-02-24T18:57:51.667Z,4.50
2019-02-24T19:00:23.944Z,4.50
2019-02-24T19:02:58.824Z,4.40
2019-02-24T19:05:32.063Z,4.40
2019-02-24T19:08:06.249Z,4.30
2019-02-24T19:10:39.968Z,4.30
2019-02-24T19:13:11.998Z,4.30
2019-02-24T19:15:45.611Z,4.30
2019-02-24T19:18:18.663Z,4.30
2019-02-24T19:20:50.338Z,4.20
2019-02-24T19:23:20.057Z,4.20
2019-02-24T19:25:55.815Z,4.10
2019-02-24T19:28:28.999Z,4.00
2019-02-24T19:31:03.294Z,4.00
2019-02-24T19:33:39.277Z,3.90
2019-02-24T19:36:14.368Z,3.80
2019-02-24T19:38:49.090Z,3.80
2019-02-24T19:41:24.994Z,3.70
2019-02-24T19:43:58.729Z,3.70
2019-02-24T19:46:32.287Z,3.70
2019-02-24T19:49:05.249Z,3.60
2019-02-24T19:51:37.586Z,3.70
2019-02-24T19:54:08.080Z,3.60
2019-02-24T19:56:42.091Z,3.60
2019-02-24T19:59:13.064Z,3.50
2019-02-24T20:01:48.721Z,3.40
2019-02-24T20:04:23.043Z,3.30
2019-02-24T20:06:59.013Z,3.30
2019-02-24T20:09:33.823Z,3.20
2019-02-24T20:12:06.912Z,3.20
2019-02-24T20:14:40.122Z,3.20
2019-02-24T20:17:11.583Z,3.20
2019-02-24T20:19:42.860Z,3.10
2019-02-24T20:22:13.371Z,3.20
2019-02-24T20:24:47.608Z,3.10
2019-02-24T20:27:19.155Z,3.10
2019-02-24T20:29:49.682Z,3.20
2019-02-24T20:32:24.460Z,3.20
2019-02-24T20:34:58.335Z,3.40
2019-02-24T20:37:33.131Z,3.40
2019-02-24T20:40:07.047Z,3.40
2019-02-24T20:42:41.351Z,3.30
2019-02-24T20:45:15.652Z,3.30
2019-02-24T20:47:47.871Z,3.30
2019-02-24T20:50:22.606Z,3.30
2019-02-24T20:52:56.606Z,3.30
2019-02-24T20:55:30.506Z,3.20
2019-02-24T20:58:07.023Z,3.30
2019-02-24T21:00:42.143Z,3.20
2019-02-24T21:03:12.865Z,3.20
2019-02-24T21:05:46.758Z,3.20
2019-02-24T21:08:18.947Z,3.20
2019-02-24T21:10:53.570Z,3.30
2019-02-24T21:13:25.119Z,3.30
2019-02-24T21:15:58.750Z,3.30
2019-02-24T21:18:34.468Z,3.40
2019-02-24T21:21:07.368Z,3.40
2019-02-24T21:23:41.118Z,3.40
2019-02-24T21:26:15.554Z,3.50
2019-02-24T21:28:49.029Z,3.50
2019-02-24T21:31:19.441Z,3.50
2019-02-24T21:33:52.936Z,3.60
2019-02-24T21:36:26.838Z,3.60
2019-02-24T21:39:00.225Z,3.60
2019-02-24T21:41:32.900Z,3.70
2019-02-24T21:44:08.547Z,3.70
2019-02-24T21:46:43.298Z,3.70
2019-02-24T21:49:15.171Z,3.60
2019-02-24T21:51:50.143Z,3.60
2019-02-24T21:54:23.419Z,3.70
2019-02-24T21:56:57.088Z,3.70
2019-02-24T21:59:36.758Z,3.70
2019-02-24T22:02:03.915Z,3.70
2019-02-24T22:04:35.519Z,3.60
2019-02-24T22:07:08.734Z,3.60
2019-02-24T22:09:42.666Z,3.50
2019-02-24T22:12:17.310Z,3.60
2019-02-24T22:14:58.757Z,3.60
2019-02-24T22:17:32.753Z,3.60
2019-02-24T22:20:06.431Z,3.60
2019-02-24T22:22:38.818Z,3.60
2019-02-24T22:25:11.686Z,3.50
2019-02-24T22:27:44.514Z,3.50
2019-02-24T22:30:18.591Z,3.50
2019-02-24T22:32:52.867Z,3.60
2019-02-24T22:35:27.686Z,3.80
2019-02-24T22:38:02.139Z,3.80
2019-02-24T22:40:35.817Z,3.70
2019-02-24T22:43:09.194Z,3.80
2019-02-24T22:45:40.594Z,3.80
2019-02-24T22:48:11.182Z,3.90
2019-02-24T22:50:46.815Z,3.90
2019-02-24T22:53:20.137Z,3.90
2019-02-24T22:55:53.794Z,3.90
2019-02-24T22:58:26.612Z,3.90
2019-02-24T23:01:09.756Z,3.90
2019-02-24T23:03:44.775Z,3.90
2019-02-24T23:06:18.626Z,3.90
2019-02-24T23:08:53.443Z,3.90
2019-02-24T23:11:27.368Z,4.00
2019-02-24T23:13:59.530Z,4.10
2019-02-24T23:16:32.426Z,4.10
2019-02-24T23:19:06.114Z,4.00
2019-02-24T23:21:40.960Z,4.00
2019-02-24T23:24:16.099Z,4.00
2019-02-24T23:26:47.961Z,4.00
2019-02-24T23:29:21.631Z,4.00
2019-02-24T23:31:56.671Z,3.90
2019-02-24T23:34:30.303Z,3.90
2019-02-24T23:37:04.075Z,3.80
2019-02-24T23:39:36.415Z,3.90
2019-02-24T23:42:10.375Z,3.90
2019-02-24T23:44:42.366Z,3.90
2019-02-24T23:47:19.039Z,3.90
2019-02-24T23:49:53.919Z,3.80
2019-02-24T23:52:27.334Z,3.80
2019-02-24T23:55:01.535Z,3.80
2019-02-24T23:57:36.262Z,3.80
